createdAt,value
2023-02-02T00:01:53.343Z,82.38
2023-02-02T00:04:33.346Z,82.50
2023-02-02T00:07:03.161Z,82.37
2023-02-02T00:09:33.287Z,82.29
2023-02-02T00:12:01.568Z,82.30
2023-02-02T00:14:30.224Z,82.63
2023-02-02T00:16:58.600Z,82.39
2023-02-02T00:19:30.541Z,82.28
2023-02-02T00:21:58.982Z,82.54
2023-02-02T00:24:27.749Z,82.73
2023-02-02T00:26:58.738Z,82.65
2023-02-02T00:29:30.664Z,82.36
2023-02-02T00:31:58.856Z,82.31
2023-02-02T00:34:27.119Z,82.49
2023-02-02T00:36:55.421Z,82.43
2023-02-02T00:39:27.632Z,82.85
2023-02-02T00:41:56.064Z,82.63
2023-02-02T00:44:42.851Z,82.76
2023-02-02T00:47:11.363Z,82.55
2023-02-02T00:49:39.682Z,82.48
2023-02-02T00:52:08.110Z,82.92
2023-02-02T00:54:36.442Z,82.33
2023-02-02T00:57:04.712Z,82.38
2023-02-02T00:59:33.578Z,82.39
2023-02-02T01:02:02.377Z,82.60
2023-02-02T01:04:31.739Z,82.45
2023-02-02T01:06:59.980Z,82.46
2023-02-02T01:09:28.499Z,82.27
2023-02-02T01:11:56.829Z,82.48
2023-02-02T01:14:25.149Z,82.33
2023-02-02T01:16:53.424Z,82.66
2023-02-02T01:19:21.680Z,82.39
2023-02-02T01:21:51.734Z,82.64
2023-02-02T01:24:20.061Z,82.47
2023-02-02T01:26:48.366Z,82.31
2023-02-02T01:29:17.294Z,82.38
2023-02-02T01:31:45.593Z,82.21
2023-02-02T01:34:13.819Z,82.30
2023-02-02T01:36:42.071Z,82.24
2023-02-02T01:39:10.394Z,82.26
2023-02-02T01:41:41.026Z,82.30
2023-02-02T01:44:47.251Z,82.13
2023-02-02T01:47:15.943Z,82.23
2023-02-02T01:49:44.704Z,82.34
2023-02-02T01:52:15.508Z,82.26
2023-02-02T01:54:51.276Z,82.31
2023-02-02T01:57:34.884Z,82.31
2023-02-02T02:00:07.418Z,82.36
2023-02-02T02:02:37.678Z,82.37
2023-02-02T02:05:08.017Z,82.50
2023-02-02T02:07:36.358Z,82.42
2023-02-02T02:10:05.009Z,82.42
2023-02-02T02:12:33.271Z,82.35
2023-02-02T02:15:20.126Z,82.55
2023-02-02T02:18:31.607Z,82.64
2023-02-02T02:21:56.305Z,82.74
2023-02-02T02:25:01.899Z,82.97
2023-02-02T02:28:01.210Z,83.14
2023-02-02T02:30:52.066Z,83.15
2023-02-02T02:33:23.055Z,83.08
2023-02-02T02:36:11.496Z,83.37
2023-02-02T02:38:54.186Z,83.16
2023-02-02T02:41:29.369Z,83.40
2023-02-02T02:44:07.131Z,83.59
2023-02-02T02:46:37.181Z,83.56
2023-02-02T02:49:10.201Z,83.73
2023-02-02T02:51:54.457Z,83.83
2023-02-02T02:54:29.290Z,83.38
2023-02-02T02:57:07.430Z,83.61
2023-02-02T02:59:47.643Z,83.94
2023-02-02T03:02:49.515Z,83.88
2023-02-02T03:05:36.160Z,84.51
2023-02-02T03:08:10.137Z,84.67
2023-02-02T03:10:41.710Z,84.58
2023-02-02T03:13:12.339Z,84.66
2023-02-02T03:15:49.839Z,84.60
2023-02-02T03:18:22.107Z,84.62
2023-02-02T03:20:50.445Z,84.67
2023-02-02T03:23:18.958Z,84.93
2023-02-02T03:25:47.386Z,85.24
2023-02-02T03:28:17.919Z,85.09
2023-02-02T03:30:48.364Z,84.96
2023-02-02T03:33:17.528Z,85.18
2023-02-02T03:35:45.949Z,85.91
2023-02-02T03:38:14.287Z,85.95
2023-02-02T03:40:42.593Z,85.86
2023-02-02T03:43:11.106Z,85.68
2023-02-02T03:45:41.100Z,85.88
2023-02-02T03:48:09.393Z,85.77
2023-02-02T03:50:38.191Z,85.67
2023-02-02T03:53:06.520Z,85.68
2023-02-02T03:55:35.504Z,86.10
2023-02-02T03:58:03.798Z,86.12
2023-02-02T04:00:32.126Z,86.09
2023-02-02T04:03:00.652Z,86.23
2023-02-02T04:05:28.939Z,86.19
2023-02-02T04:07:57.142Z,86.52
2023-02-02T04:10:25.474Z,86.07
2023-02-02T04:12:54.647Z,86.18
2023-02-02T04:15:23.220Z,86.22
2023-02-02T04:17:51.728Z,86.24
2023-02-02T04:20:20.129Z,86.22
2023-02-02T04:22:48.348Z,86.35
2023-02-02T04:25:16.685Z,86.24
2023-02-02T04:27:45.276Z,86.61
2023-02-02T04:30:13.513Z,86.11
2023-02-02T04:32:41.803Z,86.36
2023-02-02T04:35:10.069Z,85.99
2023-02-02T04:37:38.436Z,86.28
2023-02-02T04:40:07.359Z,86.18
2023-02-02T04:42:35.652Z,86.10
2023-02-02T04:45:04.636Z,86.33
2023-02-02T04:47:32.969Z,86.13
2023-02-02T04:50:01.180Z,86.38
2023-02-02T04:52:29.801Z,86.54
2023-02-02T04:54:58.222Z,86.59
2023-02-02T04:57:26.798Z,86.56
2023-02-02T04:59:55.038Z,86.51
2023-02-02T05:02:23.404Z,86.32
2023-02-02T05:04:51.742Z,86.59
2023-02-02T05:07:20.000Z,86.62
2023-02-02T05:09:48.370Z,86.44
2023-02-02T05:12:16.597Z,86.72
2023-02-02T05:14:44.789Z,86.29
2023-02-02T05:17:13.115Z,86.40
2023-02-02T05:19:42.472Z,86.13
2023-02-02T05:22:10.684Z,86.37
2023-02-02T05:24:39.093Z,86.46
2023-02-02T05:27:07.452Z,86.00
2023-02-02T05:29:36.397Z,85.76
2023-02-02T05:32:04.938Z,86.33
2023-02-02T05:34:33.236Z,86.11
2023-02-02T05:37:01.498Z,86.19
2023-02-02T05:39:29.749Z,86.38
2023-02-02T05:41:57.975Z,86.12
2023-02-02T05:44:26.281Z,86.03
2023-02-02T05:50:17.144Z,86.22
2023-02-02T05:52:47.009Z,86.06
2023-02-02T05:55:15.364Z,86.24
2023-02-02T05:57:43.619Z,86.44
2023-02-02T06:00:12.495Z,86.24
2023-02-02T06:02:40.814Z,86.25
2023-02-02T06:05:09.374Z,86.50
2023-02-02T06:07:37.697Z,86.25
2023-02-02T06:10:06.212Z,86.43
2023-02-02T06:12:34.431Z,86.15
2023-02-02T06:15:02.782Z,86.32
2023-02-02T06:17:31.044Z,86.41
2023-02-02T06:19:59.274Z,86.40
2023-02-02T06:22:27.543Z,86.03
2023-02-02T06:24:55.897Z,86.12
2023-02-02T06:27:24.155Z,86.30
2023-02-02T06:29:52.463Z,86.60
2023-02-02T06:32:20.740Z,86.44
2023-02-02T06:34:48.924Z,86.46
2023-02-02T06:37:17.240Z,86.44
2023-02-02T06:39:45.480Z,86.50
2023-02-02T06:42:21.359Z,86.51
2023-02-02T06:44:50.419Z,86.52
2023-02-02T06:47:18.761Z,86.30
2023-02-02T06:49:46.973Z,86.24
2023-02-02T06:52:15.266Z,85.89
2023-02-02T06:54:43.486Z,86.05
2023-02-02T06:57:11.908Z,85.78
2023-02-02T06:59:41.883Z,85.47
2023-02-02T07:02:12.195Z,85.81
2023-02-02T07:04:40.560Z,85.85
2023-02-02T07:07:08.808Z,85.88
2023-02-02T07:09:37.137Z,85.91
2023-02-02T07:12:05.691Z,85.69
2023-02-02T07:14:33.957Z,85.75
2023-02-02T07:17:02.161Z,85.98
2023-02-02T07:19:30.549Z,86.01
2023-02-02T07:21:58.836Z,85.88
2023-02-02T07:24:27.904Z,85.76
2023-02-02T07:26:58.228Z,85.85
2023-02-02T07:29:26.824Z,85.93
2023-02-02T07:31:55.153Z,85.91
2023-02-02T07:34:23.672Z,85.93
2023-02-02T07:36:51.890Z,86.07
2023-02-02T07:39:20.716Z,85.81
2023-02-02T07:41:49.039Z,85.40
2023-02-02T07:44:17.380Z,85.59
2023-02-02T07:46:48.033Z,85.33
2023-02-02T07:49:18.183Z,85.34
2023-02-02T07:51:49.330Z,85.08
2023-02-02T07:54:17.807Z,85.30
2023-02-02T07:56:46.368Z,85.51
2023-02-02T07:59:14.997Z,85.57
2023-02-02T08:01:44.083Z,85.65
2023-02-02T08:04:12.390Z,85.31
2023-02-02T08:06:40.882Z,85.26
2023-02-02T08:09:09.653Z,85.35
2023-02-02T08:11:38.776Z,85.33
2023-02-02T08:14:08.302Z,85.44
2023-02-02T08:16:36.959Z,85.51
2023-02-02T08:19:05.286Z,85.47
2023-02-02T08:21:35.270Z,85.30
2023-02-02T08:24:05.392Z,85.44
2023-02-02T08:26:33.612Z,85.26
2023-02-02T08:29:07.399Z,85.22
2023-02-02T08:31:42.067Z,85.06
2023-02-02T08:34:11.835Z,85.08
2023-02-02T08:36:40.460Z,85.19
2023-02-02T08:39:12.810Z,85.35
2023-02-02T08:41:41.091Z,85.01
2023-02-02T08:44:12.708Z,85.39
2023-02-02T08:46:41.784Z,85.06
2023-02-02T08:49:14.124Z,85.07
2023-02-02T08:51:43.242Z,85.33
2023-02-02T08:54:12.811Z,85.47
2023-02-02T08:56:41.155Z,84.93
2023-02-02T08:59:09.887Z,85.24
2023-02-02T09:01:38.310Z,85.01
2023-02-02T09:04:08.745Z,85.23
2023-02-02T09:06:39.829Z,85.35
2023-02-02T09:09:11.537Z,85.19
2023-02-02T09:11:40.903Z,85.32
2023-02-02T09:14:12.119Z,85.14
2023-02-02T09:16:40.538Z,85.38
2023-02-02T09:19:11.454Z,85.00
2023-02-02T09:21:40.819Z,84.82
2023-02-02T09:24:12.159Z,84.79
2023-02-02T09:26:41.276Z,85.00
2023-02-02T09:29:12.978Z,84.98
2023-02-02T09:31:41.992Z,84.79
2023-02-02T09:34:13.038Z,84.74
2023-02-02T09:36:42.884Z,84.62
2023-02-02T09:39:13.297Z,84.16
2023-02-02T09:41:44.370Z,84.17
2023-02-02T09:44:37.427Z,84.23
2023-02-02T09:47:24.459Z,83.96
2023-02-02T09:50:04.736Z,84.29
2023-02-02T09:52:55.381Z,84.53
2023-02-02T09:55:45.578Z,84.71
2023-02-02T09:58:25.420Z,84.76
2023-02-02T10:01:07.722Z,84.07
2023-02-02T10:04:03.193Z,84.73
2023-02-02T10:06:43.956Z,84.85
2023-02-02T10:09:31.080Z,84.81
2023-02-02T10:12:16.853Z,84.74
2023-02-02T10:15:02.506Z,84.92
2023-02-02T10:17:51.289Z,84.84
2023-02-02T10:20:44.993Z,84.41
2023-02-02T10:23:13.208Z,84.76
2023-02-02T10:26:08.829Z,83.64
2023-02-02T10:28:45.531Z,84.19
2023-02-02T10:31:24.880Z,83.50
2023-02-02T10:34:07.799Z,83.64
2023-02-02T10:36:51.319Z,82.54
2023-02-02T10:39:33.861Z,82.93
2023-02-02T10:42:24.981Z,83.08
2023-02-02T10:45:01.730Z,83.16
2023-02-02T10:47:34.451Z,83.69
2023-02-02T10:50:20.712Z,83.85
2023-02-02T10:53:01.764Z,83.72
2023-02-02T10:55:41.686Z,83.77
2023-02-02T10:58:12.818Z,83.62
2023-02-02T11:00:58.958Z,83.67
2023-02-02T11:03:32.818Z,83.65
2023-02-02T11:06:22.685Z,83.67
2023-02-02T11:08:56.931Z,83.68
2023-02-02T11:11:35.352Z,83.77
2023-02-02T11:14:08.736Z,84.06
2023-02-02T11:16:44.102Z,84.23
2023-02-02T11:19:19.891Z,84.24
2023-02-02T11:21:56.867Z,84.06
2023-02-02T11:24:29.537Z,83.89
2023-02-02T11:27:21.398Z,84.01
2023-02-02T11:29:53.159Z,84.04
2023-02-02T11:32:33.191Z,84.24
2023-02-02T11:35:04.430Z,84.30
2023-02-02T11:37:37.934Z,84.26
2023-02-02T11:40:28.828Z,83.97
2023-02-02T11:43:00.961Z,83.72
2023-02-02T11:45:42.040Z,83.64
2023-02-02T11:48:16.576Z,83.59
2023-02-02T11:50:51.901Z,83.70
2023-02-02T11:53:27.319Z,83.59
2023-02-02T11:55:58.494Z,83.52
2023-02-02T11:58:29.849Z,83.97
2023-02-02T12:01:04.565Z,84.12
2023-02-02T12:03:40.117Z,84.16
2023-02-02T12:06:22.581Z,83.53
2023-02-02T12:08:57.960Z,83.63
2023-02-02T12:11:35.396Z,83.95
2023-02-02T12:14:28.932Z,83.81
2023-02-02T12:17:23.780Z,83.39
2023-02-02T12:20:03.948Z,83.14
2023-02-02T12:22:47.759Z,83.05
2023-02-02T12:25:50.999Z,83.06
2023-02-02T12:28:29.923Z,82.96
2023-02-02T12:31:22.410Z,83.18
2023-02-02T12:34:15.213Z,83.25
2023-02-02T12:37:03.573Z,83.36
2023-02-02T12:39:46.885Z,83.37
2023-02-02T12:42:21.446Z,83.14
2023-02-02T12:45:14.451Z,83.01
2023-02-02T12:47:52.006Z,83.09
2023-02-02T12:50:53.985Z,83.02
2023-02-02T12:54:34.717Z,83.30
2023-02-02T12:57:09.104Z,83.42
2023-02-02T13:00:05.074Z,83.38
2023-02-02T13:03:01.260Z,83.43
2023-02-02T13:05:47.212Z,83.21
2023-02-02T13:08:22.744Z,83.31
2023-02-02T13:10:57.876Z,83.18
2023-02-02T13:13:31.954Z,83.44
2023-02-02T13:16:11.998Z,83.00
2023-02-02T13:18:52.993Z,82.85
2023-02-02T13:21:24.956Z,82.50
2023-02-02T13:24:01.065Z,81.83
2023-02-02T13:26:35.695Z,81.36
2023-02-02T13:29:06.474Z,81.49
2023-02-02T13:31:50.918Z,81.73
2023-02-02T13:34:29.421Z,81.58
2023-02-02T13:37:04.248Z,81.52
2023-02-02T13:39:42.244Z,80.48
2023-02-02T13:42:38.703Z,80.68
2023-02-02T13:45:43.502Z,81.05
2023-02-02T13:48:17.729Z,81.39
2023-02-02T13:51:06.734Z,81.87
2023-02-02T13:54:15.503Z,81.32
2023-02-02T13:56:58.469Z,80.92
2023-02-02T13:59:38.910Z,79.54
2023-02-02T14:02:21.096Z,79.35
2023-02-02T14:05:02.054Z,80.13
2023-02-02T14:07:43.482Z,80.02
2023-02-02T14:10:31.883Z,79.85
2023-02-02T14:13:32.240Z,79.42
2023-02-02T14:16:04.860Z,80.01
2023-02-02T14:18:51.104Z,80.17
2023-02-02T14:21:34.347Z,80.27
2023-02-02T14:24:14.621Z,79.97
2023-02-02T14:27:09.399Z,79.35
2023-02-02T14:29:59.332Z,79.84
2023-02-02T14:32:30.455Z,79.88
2023-02-02T14:35:14.518Z,79.64
2023-02-02T14:38:35.860Z,79.01
2023-02-02T14:42:02.669Z,78.89
2023-02-02T14:44:31.082Z,78.70
2023-02-02T14:46:59.437Z,78.89
2023-02-02T14:49:35.656Z,78.55
2023-02-02T14:52:05.561Z,78.60
2023-02-02T14:54:41.812Z,78.50
2023-02-02T14:57:28.543Z,78.75
2023-02-02T15:00:00.910Z,78.71
2023-02-02T15:02:36.904Z,79.22
2023-02-02T15:05:39.100Z,78.92
2023-02-02T15:08:13.530Z,78.95
2023-02-02T15:10:53.719Z,79.14
2023-02-02T15:13:27.099Z,79.15
2023-02-02T15:16:07.913Z,78.69
2023-02-02T15:18:47.084Z,78.45
2023-02-02T15:21:22.285Z,78.80
2023-02-02T15:23:50.941Z,78.82
2023-02-02T15:26:27.576Z,78.87
2023-02-02T15:29:08.423Z,79.00
2023-02-02T15:31:46.361Z,78.44
2023-02-02T15:34:29.642Z,78.36
2023-02-02T15:37:02.986Z,78.15
2023-02-02T15:39:33.884Z,78.37
2023-02-02T15:42:28.713Z,78.29
2023-02-02T15:44:56.991Z,78.01
2023-02-02T15:47:31.676Z,76.63
2023-02-02T15:50:00.426Z,77.21
2023-02-02T15:52:38.259Z,77.55
2023-02-02T15:55:39.448Z,78.29
2023-02-02T15:58:28.001Z,78.47
2023-02-02T16:00:59.527Z,78.43
2023-02-02T16:04:03.707Z,78.49
2023-02-02T16:06:34.898Z,77.48
2023-02-02T16:09:08.584Z,77.26
2023-02-02T16:11:42.486Z,77.45
2023-02-02T16:14:17.949Z,77.61
2023-02-02T16:16:49.737Z,77.98
2023-02-02T16:19:24.253Z,78.23
2023-02-02T16:22:04.621Z,78.19
2023-02-02T16:24:40.290Z,78.50
2023-02-02T16:27:13.551Z,78.63
2023-02-02T16:29:42.835Z,78.51
2023-02-02T16:32:31.688Z,78.30
2023-02-02T16:35:03.406Z,77.08
2023-02-02T16:37:34.489Z,78.00
2023-02-02T16:40:26.350Z,77.92
2023-02-02T16:43:17.668Z,77.65
2023-02-02T16:45:52.063Z,77.98
2023-02-02T16:48:31.131Z,78.08
2023-02-02T16:51:18.031Z,78.25
2023-02-02T16:54:22.435Z,78.62
2023-02-02T16:56:59.660Z,78.93
2023-02-02T16:59:38.148Z,79.20
2023-02-02T17:02:24.675Z,79.43
2023-02-02T17:04:59.811Z,79.74
2023-02-02T17:07:29.928Z,79.55
2023-02-02T17:10:31.430Z,79.54
2023-02-02T17:13:01.703Z,79.39
2023-02-02T17:15:36.402Z,79.48
2023-02-02T17:18:05.520Z,79.38
2023-02-02T17:20:34.842Z,79.30
2023-02-02T17:23:07.198Z,79.27
2023-02-02T17:25:40.866Z,79.32
2023-02-02T17:28:16.154Z,79.18
2023-02-02T17:30:47.294Z,79.19
2023-02-02T17:33:19.458Z,79.24
2023-02-02T17:35:55.045Z,79.34
2023-02-02T17:38:28.545Z,79.29
2023-02-02T17:41:01.505Z,79.32
2023-02-02T17:43:31.086Z,79.28
2023-02-02T17:45:59.820Z,79.10
2023-02-02T17:48:28.226Z,79.09
2023-02-02T17:50:56.471Z,79.08
2023-02-02T17:53:24.724Z,79.14
2023-02-02T17:55:53.605Z,79.13
2023-02-02T17:58:21.867Z,79.21
2023-02-02T18:00:54.356Z,79.06
2023-02-02T18:03:26.713Z,79.11
2023-02-02T18:05:56.079Z,78.97
2023-02-02T18:08:24.409Z,78.97
2023-02-02T18:10:52.671Z,78.83
2023-02-02T18:13:23.114Z,78.87
2023-02-02T18:15:53.276Z,78.87
2023-02-02T18:18:22.292Z,78.94
2023-02-02T18:20:51.377Z,79.04
2023-02-02T18:23:19.865Z,78.95
2023-02-02T18:25:50.414Z,78.95
2023-02-02T18:28:18.999Z,78.84
2023-02-02T18:30:47.803Z,78.83
2023-02-02T18:33:20.256Z,78.89
2023-02-02T18:35:48.877Z,78.92
2023-02-02T18:38:18.215Z,78.86
2023-02-02T18:40:54.837Z,78.99
2023-02-02T18:43:23.171Z,78.99
2023-02-02T18:46:03.052Z,79.09
2023-02-02T18:48:31.671Z,78.94
2023-02-02T18:51:03.767Z,78.90
2023-02-02T18:53:32.148Z,78.86
2023-02-02T18:56:05.557Z,78.93
2023-02-02T18:58:35.646Z,78.98
2023-02-02T19:01:08.473Z,78.97
2023-02-02T19:03:37.026Z,78.97
2023-02-02T19:06:26.291Z,79.01
2023-02-02T19:08:55.190Z,78.96
2023-02-02T19:11:26.852Z,78.95
2023-02-02T19:13:55.773Z,79.03
2023-02-02T19:16:29.141Z,78.89
2023-02-02T19:19:19.983Z,78.83
2023-02-02T19:21:48.553Z,78.88
2023-02-02T19:24:16.783Z,78.95
2023-02-02T19:26:47.507Z,78.83
2023-02-02T19:29:23.035Z,78.79
2023-02-02T19:31:53.959Z,78.88
2023-02-02T19:34:23.456Z,78.88
2023-02-02T19:36:52.451Z,78.85
2023-02-02T19:39:31.229Z,78.86
2023-02-02T19:42:00.757Z,78.68
2023-02-02T19:44:34.149Z,78.73
2023-02-02T19:47:22.706Z,78.59
2023-02-02T19:49:51.135Z,78.67
2023-02-02T19:52:24.675Z,78.55
2023-02-02T19:54:54.267Z,78.57
2023-02-02T19:57:38.583Z,78.56
2023-02-02T20:00:20.593Z,78.48
2023-02-02T20:02:52.357Z,78.59
2023-02-02T20:05:41.951Z,78.50
2023-02-02T20:08:19.497Z,78.47
2023-02-02T20:10:47.990Z,78.48
2023-02-02T20:13:21.663Z,78.58
2023-02-02T20:15:52.470Z,78.56
2023-02-02T20:18:33.828Z,78.45
2023-02-02T20:21:05.448Z,78.49
2023-02-02T20:23:43.422Z,78.52
2023-02-02T20:26:29.503Z,78.67
2023-02-02T20:29:00.149Z,78.66
2023-02-02T20:31:36.379Z,78.45
2023-02-02T20:34:35.132Z,78.59
2023-02-02T20:37:23.994Z,78.78
2023-02-02T20:39:55.137Z,78.55
2023-02-02T20:42:23.815Z,78.66
2023-02-02T20:44:52.350Z,78.48
2023-02-02T20:47:21.425Z,78.58
2023-02-02T20:49:50.042Z,78.56
2023-02-02T20:52:27.751Z,78.56
2023-02-02T20:54:57.250Z,78.38
2023-02-02T20:57:25.816Z,78.64
2023-02-02T20:59:58.018Z,78.57
2023-02-02T21:02:27.661Z,78.36
2023-02-02T21:04:56.127Z,78.55
2023-02-02T21:07:24.495Z,78.59
2023-02-02T21:09:52.775Z,78.22
2023-02-02T21:12:25.625Z,78.36
2023-02-02T21:14:54.478Z,78.33
2023-02-02T21:17:23.097Z,78.02
2023-02-02T21:19:51.383Z,78.33
2023-02-02T21:22:19.762Z,78.39
2023-02-02T21:24:48.233Z,78.27
2023-02-02T21:27:16.535Z,78.33
2023-02-02T21:29:45.029Z,78.41
2023-02-02T21:32:13.399Z,78.43
2023-02-02T21:34:41.735Z,78.48
2023-02-02T21:37:16.525Z,78.33
2023-02-02T21:40:23.678Z,78.31
2023-02-02T21:42:54.519Z,78.84
2023-02-02T21:45:22.851Z,78.59
2023-02-02T21:48:01.705Z,78.57
2023-02-02T21:50:35.268Z,78.52
2023-02-02T21:53:24.561Z,78.66
2023-02-02T21:55:54.873Z,78.69
2023-02-02T21:58:40.213Z,78.51
2023-02-02T22:01:33.981Z,78.76
2023-02-02T22:04:07.755Z,78.61
2023-02-02T22:06:50.173Z,78.84
2023-02-02T22:09:24.764Z,78.66
2023-02-02T22:14:01.650Z,78.93
2023-02-02T22:15:59.309Z,78.57
2023-02-02T22:18:29.819Z,78.66
2023-02-02T22:20:58.179Z,78.78
2023-02-02T22:23:28.844Z,78.82
2023-02-02T22:25:58.516Z,78.79
2023-02-02T22:28:36.934Z,78.88
2023-02-02T22:31:05.407Z,78.99
2023-02-02T22:33:33.807Z,78.95
2023-02-02T22:36:03.195Z,78.82
2023-02-02T22:38:31.466Z,78.81
2023-02-02T22:40:59.671Z,79.04
2023-02-02T22:43:27.971Z,78.72
2023-02-02T22:45:56.659Z,79.03
2023-02-02T22:48:25.295Z,78.98
2023-02-02T22:50:56.785Z,79.10
2023-02-02T22:53:25.204Z,79.01
2023-02-02T22:55:56.871Z,78.84
2023-02-02T22:58:25.758Z,78.97
2023-02-02T23:00:54.280Z,79.16
2023-02-02T23:03:22.657Z,79.10
2023-02-02T23:05:50.965Z,79.16
2023-02-02T23:08:19.288Z,78.94
2023-02-02T23:10:47.997Z,79.08
2023-02-02T23:13:16.348Z,78.92
2023-02-02T23:15:44.740Z,79.26
2023-02-02T23:18:13.238Z,79.26
2023-02-02T23:20:41.411Z,79.12
2023-02-02T23:23:10.116Z,79.04
2023-02-02T23:25:38.704Z,79.26
2023-02-02T23:28:09.766Z,79.21
2023-02-02T23:30:38.219Z,79.19
2023-02-02T23:33:06.479Z,79.19
2023-02-02T23:35:34.915Z,79.24
2023-02-02T23:38:03.413Z,79.45
2023-02-02T23:40:31.976Z,79.34
2023-02-02T23:43:00.325Z,79.24
2023-02-02T23:45:28.647Z,79.22
2023-02-02T23:47:56.965Z,79.53
2023-02-02T23:50:25.602Z,79.32
2023-02-02T23:52:54.298Z,79.39
2023-02-02T23:55:22.704Z,79.43
2023-02-02T23:57:51.130Z,79.46
